createdAt,value
2023-01-19T00:01:14.138Z,99327.94
2023-01-19T00:03:42.456Z,99328.88
2023-01-19T00:06:09.234Z,99338.44
2023-01-19T00:08:36.804Z,99338.88
2023-01-19T00:11:04.062Z,99325.19
2023-01-19T00:13:31.384Z,99328.41
2023-01-19T00:15:58.309Z,99325.22
2023-01-19T00:18:25.952Z,99318.44
2023-01-19T00:20:52.547Z,99319.47
2023-01-19T00:23:24.449Z,99319.28
2023-01-19T00:25:51.358Z,99325.72
2023-01-19T00:28:19.073Z,99316.41
2023-01-19T00:30:45.975Z,99315.97
2023-01-19T00:33:16.360Z,99305.38
2023-01-19T00:35:46.917Z,99313.69
2023-01-19T00:38:13.816Z,99297.66
2023-01-19T00:40:43.507Z,99312.34
2023-01-19T00:43:10.096Z,99308.88
2023-01-19T00:45:36.759Z,99309.75
2023-01-19T00:48:03.628Z,99307.97
2023-01-19T00:50:34.008Z,99314.03
2023-01-19T00:53:01.869Z,99305.84
2023-01-19T00:55:33.269Z,99311.19
2023-01-19T00:58:00.231Z,99313.16
2023-01-19T01:00:29.377Z,99309.09
2023-01-19T01:02:56.188Z,99308.09
2023-01-19T01:05:24.922Z,99315.47
2023-01-19T01:07:53.233Z,99312.34
2023-01-19T01:10:25.514Z,99319.09
2023-01-19T01:12:54.944Z,99324.06
2023-01-19T01:15:27.500Z,99329.25
2023-01-19T01:17:54.925Z,99323.50
2023-01-19T01:20:26.254Z,99326.09
2023-01-19T01:22:53.855Z,99332.69
2023-01-19T01:25:23.247Z,99330.69
2023-01-19T01:27:50.561Z,99326.31
2023-01-19T01:30:21.156Z,99323.00
2023-01-19T01:32:48.252Z,99323.03
2023-01-19T01:35:16.152Z,99321.72
2023-01-19T01:37:47.073Z,99320.91
2023-01-19T01:40:16.982Z,99322.22
2023-01-19T01:42:47.588Z,99327.41
2023-01-19T01:45:40.112Z,99323.06
2023-01-19T01:48:32.702Z,99328.47
2023-01-19T01:51:25.997Z,99328.47
2023-01-19T01:54:07.172Z,99319.16
2023-01-19T01:56:37.870Z,99323.78
2023-01-19T01:59:11.854Z,99318.00
2023-01-19T02:01:59.851Z,99315.31
2023-01-19T02:04:33.256Z,99311.81
2023-01-19T02:07:18.428Z,99314.53
2023-01-19T02:10:03.859Z,99314.69
2023-01-19T02:12:51.662Z,99304.91
2023-01-19T02:15:20.281Z,99297.94
2023-01-19T02:17:50.593Z,99300.19
2023-01-19T02:20:21.547Z,99305.00
2023-01-19T02:22:50.567Z,99291.59
2023-01-19T02:25:19.224Z,99303.91
2023-01-19T02:27:48.986Z,99300.81
2023-01-19T02:30:16.878Z,99300.19
2023-01-19T02:32:44.358Z,99295.84
2023-01-19T02:35:12.156Z,99295.38
2023-01-19T02:37:41.435Z,99291.19
2023-01-19T02:40:14.387Z,99294.91
2023-01-19T02:42:46.186Z,99292.38
2023-01-19T02:45:17.295Z,99293.50
2023-01-19T02:47:46.843Z,99291.72
2023-01-19T02:50:46.327Z,99303.91
2023-01-19T02:53:27.703Z,99289.41
2023-01-19T02:56:06.744Z,99301.03
2023-01-19T02:58:41.940Z,99297.59
2023-01-19T03:01:30.092Z,99299.53
2023-01-19T03:04:26.694Z,99297.44
2023-01-19T03:07:13.299Z,99282.94
2023-01-19T03:09:41.388Z,99294.88
2023-01-19T03:12:53.919Z,99281.00
2023-01-19T03:15:31.670Z,99292.72
2023-01-19T03:18:02.180Z,99302.59
2023-01-19T03:20:29.122Z,99293.38
2023-01-19T03:23:03.281Z,99296.00
2023-01-19T03:25:37.914Z,99291.16
2023-01-19T03:28:07.871Z,99295.91
2023-01-19T03:30:44.279Z,99298.59
2023-01-19T03:33:24.125Z,99299.59
2023-01-19T03:36:03.600Z,99300.44
2023-01-19T03:38:37.866Z,99305.13
2023-01-19T03:41:09.223Z,99294.63
2023-01-19T03:43:40.206Z,99290.56
2023-01-19T03:46:08.558Z,99299.00
2023-01-19T03:48:35.707Z,99298.50
2023-01-19T03:51:07.242Z,99300.69
2023-01-19T03:53:36.526Z,99301.97
2023-01-19T03:56:06.587Z,99312.53
2023-01-19T03:58:36.614Z,99316.16
2023-01-19T04:01:04.173Z,99322.41
2023-01-19T04:03:31.252Z,99311.75
2023-01-19T04:05:58.128Z,99313.66
2023-01-19T04:08:24.938Z,99313.97
2023-01-19T04:10:51.645Z,99313.31
2023-01-19T04:13:18.382Z,99314.22
2023-01-19T04:15:44.969Z,99311.75
2023-01-19T04:18:11.873Z,99307.19
2023-01-19T04:20:38.495Z,99306.78
2023-01-19T04:23:05.311Z,99308.38
2023-01-19T04:25:34.627Z,99308.19
2023-01-19T04:28:01.816Z,99310.97
2023-01-19T04:30:30.927Z,99303.88
2023-01-19T04:32:59.353Z,99304.56
2023-01-19T04:35:28.892Z,99301.41
2023-01-19T04:37:55.958Z,99305.94
2023-01-19T04:40:23.345Z,99309.63
2023-01-19T04:42:51.200Z,99313.13
2023-01-19T04:45:18.539Z,99310.00
2023-01-19T04:47:45.989Z,99315.88
2023-01-19T04:50:22.787Z,99309.22
2023-01-19T04:52:49.542Z,99314.94
2023-01-19T04:55:16.287Z,99312.22
2023-01-19T04:57:44.132Z,99319.84
2023-01-19T05:00:14.727Z,99320.16
2023-01-19T05:02:45.447Z,99323.41
2023-01-19T05:05:12.510Z,99319.84
2023-01-19T05:07:39.695Z,99325.16
2023-01-19T05:10:07.130Z,99318.44
2023-01-19T05:12:34.352Z,99328.91
2023-01-19T05:15:04.528Z,99338.19
2023-01-19T05:17:34.424Z,99323.66
2023-01-19T05:20:03.321Z,99326.84
2023-01-19T05:22:30.062Z,99332.50
2023-01-19T05:24:56.819Z,99344.53
2023-01-19T05:27:23.695Z,99335.94
2023-01-19T05:29:53.645Z,99334.59
2023-01-19T05:32:20.783Z,99333.94
2023-01-19T05:34:47.397Z,99339.56
2023-01-19T05:37:14.136Z,99330.28
2023-01-19T05:39:41.630Z,99341.28
2023-01-19T05:42:14.136Z,99339.66
2023-01-19T05:44:42.971Z,99341.25
2023-01-19T05:47:09.530Z,99341.41
2023-01-19T05:49:38.784Z,99340.34
2023-01-19T05:52:05.439Z,99347.22
2023-01-19T05:54:32.213Z,99350.00
2023-01-19T05:57:03.181Z,99341.72
2023-01-19T05:59:29.928Z,99347.78
2023-01-19T06:01:57.172Z,99338.09
2023-01-19T06:04:23.973Z,99338.22
2023-01-19T06:06:51.561Z,99336.91
2023-01-19T06:09:18.213Z,99336.13
2023-01-19T06:11:46.159Z,99333.47
2023-01-19T06:14:13.758Z,99341.72
2023-01-19T06:16:40.553Z,99337.91
2023-01-19T06:19:07.277Z,99344.69
2023-01-19T06:21:34.363Z,99343.63
2023-01-19T06:24:01.258Z,99353.03
2023-01-19T06:26:27.949Z,99342.88
2023-01-19T06:28:57.335Z,99341.53
2023-01-19T06:31:24.051Z,99350.88
2023-01-19T06:33:50.732Z,99349.25
2023-01-19T06:36:17.437Z,99357.34
2023-01-19T06:38:47.140Z,99357.91
2023-01-19T06:41:16.265Z,99359.00
2023-01-19T06:43:42.770Z,99366.16
2023-01-19T06:46:09.609Z,99366.56
2023-01-19T06:48:36.349Z,99367.03
2023-01-19T06:51:08.133Z,99368.50
2023-01-19T06:53:38.895Z,99373.88
2023-01-19T06:56:09.620Z,99380.28
2023-01-19T06:58:36.675Z,99387.47
2023-01-19T07:01:08.015Z,99395.31
2023-01-19T07:03:36.220Z,99395.09
2023-01-19T07:06:02.946Z,99383.50
2023-01-19T07:08:29.883Z,99401.72
2023-01-19T07:11:26.057Z,99400.84
2023-01-19T07:13:55.116Z,99413.25
2023-01-19T07:16:21.974Z,99408.22
2023-01-19T07:18:50.184Z,99416.44
2023-01-19T07:21:17.369Z,99427.78
2023-01-19T07:23:43.933Z,99425.06
2023-01-19T07:26:10.669Z,99426.94
2023-01-19T07:28:37.277Z,99437.09
2023-01-19T07:31:04.537Z,99440.34
2023-01-19T07:33:31.195Z,99443.34
2023-01-19T07:35:57.803Z,99450.78
2023-01-19T07:38:24.360Z,99448.09
2023-01-19T07:40:50.963Z,99448.56
2023-01-19T07:43:17.569Z,99459.00
2023-01-19T07:45:45.201Z,99464.94
2023-01-19T07:48:12.009Z,99450.59
2023-01-19T07:50:38.611Z,99460.31
2023-01-19T07:53:12.298Z,99462.94
2023-01-19T07:55:39.055Z,99460.69
2023-01-19T07:58:07.330Z,99470.69
2023-01-19T08:00:35.782Z,99478.81
2023-01-19T08:03:04.224Z,99473.47
2023-01-19T08:05:32.672Z,99480.78
2023-01-19T08:08:00.421Z,99483.59
2023-01-19T08:10:28.786Z,99493.72
2023-01-19T08:12:59.067Z,99487.59
2023-01-19T08:15:26.533Z,99497.44
2023-01-19T08:17:58.389Z,99490.25
2023-01-19T08:20:27.067Z,99492.28
2023-01-19T08:23:01.414Z,99491.31
2023-01-19T08:25:45.249Z,99490.16
2023-01-19T08:28:15.252Z,99492.16
2023-01-19T08:30:44.791Z,99502.97
2023-01-19T08:33:12.911Z,99505.78
2023-01-19T08:35:41.926Z,99503.06
2023-01-19T08:38:10.000Z,99504.25
2023-01-19T08:40:39.124Z,99510.25
2023-01-19T08:43:10.588Z,99497.59
2023-01-19T08:45:48.091Z,99505.66
2023-01-19T08:48:22.203Z,99516.91
2023-01-19T08:50:52.870Z,99517.69
2023-01-19T08:53:23.693Z,99528.34
2023-01-19T08:55:57.174Z,99519.25
2023-01-19T08:58:24.727Z,99523.19
2023-01-19T09:00:52.798Z,99523.91
2023-01-19T09:03:23.186Z,99529.31
2023-01-19T09:06:01.623Z,99520.22
2023-01-19T09:08:28.459Z,99533.88
2023-01-19T09:10:55.475Z,99538.66
2023-01-19T09:13:29.554Z,99535.47
2023-01-19T09:16:02.643Z,99536.75
2023-01-19T09:18:29.753Z,99531.66
2023-01-19T09:20:57.999Z,99532.88
2023-01-19T09:23:25.402Z,99538.75
2023-01-19T09:25:59.411Z,99537.31
2023-01-19T09:28:27.011Z,99532.75
2023-01-19T09:30:53.858Z,99546.41
2023-01-19T09:33:21.349Z,99546.25
2023-01-19T09:35:52.067Z,99561.72
2023-01-19T09:38:20.668Z,99559.72
2023-01-19T09:40:52.158Z,99563.44
2023-01-19T09:43:27.906Z,99566.09
2023-01-19T09:46:15.075Z,99572.78
2023-01-19T09:48:56.822Z,99573.09
2023-01-19T09:51:28.189Z,99578.97
2023-01-19T09:54:04.332Z,99589.38
2023-01-19T09:56:32.322Z,99590.34
2023-01-19T09:59:00.476Z,99598.59
2023-01-19T10:01:41.724Z,99586.41
2023-01-19T10:04:31.954Z,99583.72
2023-01-19T10:07:13.978Z,99598.88
2023-01-19T10:10:13.812Z,99602.47
2023-01-19T10:13:14.179Z,99601.09
2023-01-19T10:16:01.030Z,99596.50
2023-01-19T10:18:51.676Z,99596.44
2023-01-19T10:21:24.021Z,99598.19
2023-01-19T10:23:52.631Z,99598.09
2023-01-19T10:26:29.641Z,99604.09
2023-01-19T10:29:03.125Z,99602.81
2023-01-19T10:31:30.136Z,99604.03
2023-01-19T10:33:57.150Z,99601.41
2023-01-19T10:36:36.928Z,99612.31
2023-01-19T10:39:05.257Z,99609.09
2023-01-19T10:41:51.490Z,99618.31
2023-01-19T10:44:36.597Z,99611.59
2023-01-19T10:47:06.398Z,99608.09
2023-01-19T10:49:42.882Z,99607.78
2023-01-19T10:52:22.877Z,99612.09
2023-01-19T10:54:49.738Z,99625.16
2023-01-19T10:57:25.696Z,99621.88
2023-01-19T10:59:52.432Z,99624.84
2023-01-19T11:02:21.524Z,99629.13
2023-01-19T11:04:51.607Z,99631.97
2023-01-19T11:07:18.207Z,99626.00
2023-01-19T11:09:45.046Z,99635.34
2023-01-19T11:12:22.988Z,99635.41
2023-01-19T11:14:51.343Z,99627.19
2023-01-19T11:17:26.067Z,99628.44
2023-01-19T11:19:56.252Z,99629.34
2023-01-19T11:22:27.923Z,99628.13
2023-01-19T11:25:03.201Z,99631.78
2023-01-19T11:27:33.428Z,99626.06
2023-01-19T11:30:09.900Z,99628.25
2023-01-19T11:32:37.228Z,99625.84
2023-01-19T11:35:30.042Z,99627.19
2023-01-19T11:38:24.699Z,99632.53
2023-01-19T11:40:54.981Z,99632.16
2023-01-19T11:43:24.278Z,99638.53
2023-01-19T11:45:51.791Z,99642.31
2023-01-19T11:48:33.429Z,99635.00
2023-01-19T11:51:04.435Z,99644.44
2023-01-19T11:53:34.193Z,99639.09
2023-01-19T11:56:15.075Z,99634.16
2023-01-19T11:58:46.958Z,99636.22
2023-01-19T12:01:23.163Z,99640.13
2023-01-19T12:03:55.995Z,99646.44
2023-01-19T12:06:31.936Z,99638.88
2023-01-19T12:09:18.289Z,99636.78
2023-01-19T12:11:50.616Z,99649.69
2023-01-19T12:14:23.620Z,99644.97
2023-01-19T12:16:56.242Z,99643.66
2023-01-19T12:19:29.479Z,99645.94
2023-01-19T12:21:56.516Z,99649.13
2023-01-19T12:24:59.793Z,99651.28
2023-01-19T12:27:38.546Z,99657.38
2023-01-19T12:30:10.538Z,99662.84
2023-01-19T12:32:37.506Z,99655.47
2023-01-19T12:35:49.426Z,99657.03
2023-01-19T12:38:34.637Z,99663.22
2023-01-19T12:41:27.481Z,99663.25
2023-01-19T12:44:12.347Z,99654.53
2023-01-19T12:46:41.444Z,99652.59
2023-01-19T12:49:11.149Z,99660.66
2023-01-19T12:51:38.653Z,99655.88
2023-01-19T12:54:16.732Z,99662.97
2023-01-19T12:56:43.589Z,99669.69
2023-01-19T12:59:29.364Z,99678.25
2023-01-19T13:02:17.901Z,99683.22
2023-01-19T13:05:15.305Z,99679.13
2023-01-19T13:08:09.567Z,99687.97
2023-01-19T13:11:22.477Z,99684.84
2023-01-19T13:13:49.880Z,99693.84
2023-01-19T13:16:19.873Z,99697.56
2023-01-19T13:18:55.547Z,99693.78
2023-01-19T13:21:32.713Z,99695.84
2023-01-19T13:24:02.287Z,99697.22
2023-01-19T13:26:31.012Z,99700.06
2023-01-19T13:29:08.141Z,99705.25
2023-01-19T13:31:39.754Z,99691.63
2023-01-19T13:34:14.138Z,99702.09
2023-01-19T13:36:45.159Z,99709.81
2023-01-19T13:39:21.758Z,99711.91
2023-01-19T13:41:52.722Z,99702.31
2023-01-19T13:44:27.484Z,99711.47
2023-01-19T13:46:56.410Z,99708.84
2023-01-19T13:49:39.085Z,99704.75
2023-01-19T13:52:19.745Z,99710.41
2023-01-19T13:54:55.898Z,99721.13
2023-01-19T13:57:28.587Z,99718.84
2023-01-19T14:00:11.894Z,99722.19
2023-01-19T14:02:39.853Z,99722.28
2023-01-19T14:05:23.397Z,99720.94
2023-01-19T14:08:05.442Z,99719.44
2023-01-19T14:10:33.436Z,99722.75
2023-01-19T14:13:01.164Z,99740.16
2023-01-19T14:15:29.695Z,99740.59
2023-01-19T14:18:18.918Z,99741.75
2023-01-19T14:20:52.475Z,99744.81
2023-01-19T14:23:37.706Z,99753.50
2023-01-19T14:26:04.549Z,99757.34
2023-01-19T14:28:42.837Z,99760.66
2023-01-19T14:31:24.302Z,99756.66
2023-01-19T14:33:53.355Z,99764.13
2023-01-19T14:36:26.539Z,99762.53
2023-01-19T14:38:54.608Z,99767.25
2023-01-19T14:41:26.393Z,99771.28
2023-01-19T14:43:55.979Z,99763.63
2023-01-19T14:46:24.651Z,99768.81
2023-01-19T14:48:56.031Z,99779.56
2023-01-19T14:51:24.417Z,99786.97
2023-01-19T14:53:54.957Z,99792.34
2023-01-19T14:56:40.392Z,99788.91
2023-01-19T14:59:09.867Z,99792.09
2023-01-19T15:01:37.198Z,99800.78
2023-01-19T15:04:03.856Z,99799.38
2023-01-19T15:06:31.548Z,99800.13
2023-01-19T15:08:58.675Z,99796.19
2023-01-19T15:11:31.075Z,99806.91
2023-01-19T15:13:59.030Z,99810.75
2023-01-19T15:16:27.481Z,99816.94
2023-01-19T15:18:54.173Z,99810.97
2023-01-19T15:21:26.828Z,99817.44
2023-01-19T15:23:54.684Z,99819.09
2023-01-19T15:26:24.506Z,99827.94
2023-01-19T15:28:52.042Z,99826.72
2023-01-19T15:31:21.589Z,99827.53
2023-01-19T15:33:48.484Z,99832.22
2023-01-19T15:36:19.389Z,99836.81
2023-01-19T15:38:47.163Z,99838.34
2023-01-19T15:41:23.791Z,99838.22
2023-01-19T15:43:50.929Z,99842.25
2023-01-19T15:46:22.307Z,99852.50
2023-01-19T15:48:50.465Z,99843.41
2023-01-19T15:51:19.484Z,99841.34
2023-01-19T15:53:46.523Z,99848.94
2023-01-19T15:56:40.035Z,99856.38
2023-01-19T15:59:09.984Z,99856.63
2023-01-19T16:01:36.955Z,99860.69
2023-01-19T16:04:06.264Z,99866.16
2023-01-19T16:06:33.692Z,99867.19
2023-01-19T16:09:01.551Z,99868.34
2023-01-19T16:11:33.453Z,99880.28
2023-01-19T16:14:00.919Z,99876.28
2023-01-19T16:16:28.229Z,99887.81
2023-01-19T16:18:56.042Z,99890.00
2023-01-19T16:21:23.775Z,99890.56
2023-01-19T16:23:50.664Z,99889.56
2023-01-19T16:26:26.825Z,99899.28
2023-01-19T16:28:57.274Z,99889.38
2023-01-19T16:31:27.624Z,99892.41
2023-01-19T16:33:54.795Z,99902.00
2023-01-19T16:36:26.774Z,99906.25
2023-01-19T16:38:54.488Z,99898.91
2023-01-19T16:41:21.489Z,99913.53
2023-01-19T16:43:54.424Z,99916.38
2023-01-19T16:46:26.222Z,99918.63
2023-01-19T16:48:52.979Z,99924.84
2023-01-19T16:51:20.065Z,99924.44
2023-01-19T16:53:49.383Z,99928.38
2023-01-19T16:56:16.920Z,99929.31
2023-01-19T16:58:45.577Z,99925.97
2023-01-19T17:01:20.084Z,99935.19
2023-01-19T17:03:47.907Z,99943.56
2023-01-19T17:06:18.094Z,99945.13
2023-01-19T17:08:44.903Z,99936.75
2023-01-19T17:11:22.584Z,99951.91
2023-01-19T17:13:54.469Z,99958.56
2023-01-19T17:16:22.277Z,99955.91
2023-01-19T17:18:52.221Z,99966.84
2023-01-19T17:21:20.474Z,99959.63
2023-01-19T17:23:51.874Z,99968.84
2023-01-19T17:26:22.181Z,99968.25
2023-01-19T17:28:48.958Z,99969.63
2023-01-19T17:31:24.364Z,99981.19
2023-01-19T17:33:51.462Z,99972.56
2023-01-19T17:36:22.596Z,99982.97
2023-01-19T17:38:50.464Z,99985.66
2023-01-19T17:41:24.870Z,99987.06
2023-01-19T17:43:52.258Z,99994.84
2023-01-19T17:46:24.154Z,99996.25
2023-01-19T17:48:54.125Z,99999.97
2023-01-19T17:51:22.996Z,99997.56
2023-01-19T17:53:51.165Z,99998.00
2023-01-19T17:56:22.081Z,100000.28
2023-01-19T17:58:49.969Z,100001.25
2023-01-19T18:01:22.687Z,100001.03
2023-01-19T18:03:49.363Z,100009.72
2023-01-19T18:06:16.606Z,100013.25
2023-01-19T18:08:46.173Z,100013.59
2023-01-19T18:11:14.124Z,100017.94
2023-01-19T18:13:43.879Z,100025.34
2023-01-19T18:16:13.992Z,100020.47
2023-01-19T18:18:41.359Z,100026.88
2023-01-19T18:21:12.761Z,100024.16
2023-01-19T18:23:40.277Z,100025.00
2023-01-19T18:26:13.073Z,100025.44
2023-01-19T18:28:57.000Z,100028.16
2023-01-19T18:31:24.663Z,100026.91
2023-01-19T18:33:53.262Z,100034.19
2023-01-19T18:36:20.382Z,100033.03
2023-01-19T18:38:47.711Z,100040.25
2023-01-19T18:41:19.798Z,100029.56
2023-01-19T18:43:47.890Z,100034.34
2023-01-19T18:46:15.128Z,100026.72
2023-01-19T18:48:41.808Z,100032.19
2023-01-19T18:51:13.544Z,100028.75
2023-01-19T18:53:41.201Z,100030.03
2023-01-19T18:56:08.763Z,100030.81
2023-01-19T18:58:38.193Z,100029.56
2023-01-19T19:01:25.714Z,100033.03
2023-01-19T19:03:55.830Z,100036.44
2023-01-19T19:06:24.199Z,100029.28
2023-01-19T19:08:52.470Z,100034.66
2023-01-19T19:11:21.332Z,100039.16
2023-01-19T19:14:00.384Z,100050.31
2023-01-19T19:16:28.542Z,100039.16
2023-01-19T19:18:55.493Z,100041.59
2023-01-19T19:21:25.159Z,100044.69
2023-01-19T19:23:54.056Z,100046.97
2023-01-19T19:26:21.392Z,100048.56
2023-01-19T19:28:49.831Z,100047.44
2023-01-19T19:31:24.910Z,100045.66
2023-01-19T19:33:52.148Z,100046.16
2023-01-19T19:36:19.966Z,100051.41
2023-01-19T19:38:47.607Z,100056.72
2023-01-19T19:41:17.437Z,100052.44
2023-01-19T19:43:46.787Z,100053.09
2023-01-19T19:46:19.949Z,100054.78
2023-01-19T19:48:48.334Z,100051.16
2023-01-19T19:51:19.269Z,100061.44
2023-01-19T19:53:48.399Z,100053.75
2023-01-19T19:56:19.753Z,100049.56
2023-01-19T19:58:47.280Z,100063.38
2023-01-19T20:01:16.463Z,100060.84
2023-01-19T20:03:45.591Z,100060.72
2023-01-19T20:06:15.439Z,100058.34
2023-01-19T20:08:47.210Z,100059.72
2023-01-19T20:11:17.214Z,100073.16
2023-01-19T20:13:44.751Z,100077.69
2023-01-19T20:16:13.899Z,100073.22
2023-01-19T20:18:42.478Z,100076.41
2023-01-19T20:21:21.410Z,100080.44
2023-01-19T20:23:50.607Z,100081.88
2023-01-19T20:26:20.009Z,100083.06
2023-01-19T20:28:47.053Z,100085.03
2023-01-19T20:31:15.845Z,100083.69
2023-01-19T20:33:47.402Z,100086.53
2023-01-19T20:36:18.005Z,100093.84
2023-01-19T20:38:45.229Z,100102.38
2023-01-19T20:41:12.789Z,100102.47
2023-01-19T20:43:40.080Z,100104.81
2023-01-19T20:46:07.271Z,100108.59
2023-01-19T20:48:34.010Z,100108.72
2023-01-19T20:51:05.539Z,100105.06
2023-01-19T20:53:32.823Z,100109.25
2023-01-19T20:56:06.094Z,100109.03
2023-01-19T20:58:33.336Z,100116.59
2023-01-19T21:00:59.987Z,100120.34
2023-01-19T21:03:26.571Z,100125.66
2023-01-19T21:05:53.163Z,100130.22
2023-01-19T21:08:19.921Z,100142.22
2023-01-19T21:10:46.583Z,100136.91
2023-01-19T21:13:13.202Z,100142.69
2023-01-19T21:15:39.855Z,100145.25
2023-01-19T21:18:06.394Z,100154.00
2023-01-19T21:20:33.085Z,100154.59
2023-01-19T21:22:59.688Z,100157.56
2023-01-19T21:25:26.260Z,100170.34
2023-01-19T21:27:52.883Z,100181.03
2023-01-19T21:30:19.722Z,100176.06
2023-01-19T21:32:46.341Z,100182.91
2023-01-19T21:35:13.408Z,100183.66
2023-01-19T21:37:40.239Z,100190.38
2023-01-19T21:40:07.760Z,100196.03
2023-01-19T21:42:34.369Z,100190.38
2023-01-19T21:45:01.006Z,100195.22
2023-01-19T21:47:27.559Z,100191.88
2023-01-19T21:49:54.359Z,100197.84
2023-01-19T21:52:20.941Z,100195.94
2023-01-19T21:54:47.550Z,100206.22
2023-01-19T21:57:15.201Z,100210.69
2023-01-19T21:59:41.831Z,100215.72
2023-01-19T22:02:11.654Z,100213.41
2023-01-19T22:04:39.273Z,100224.47
2023-01-19T22:07:06.370Z,100223.84
2023-01-19T22:09:36.419Z,100227.06
2023-01-19T22:12:03.212Z,100232.03
2023-01-19T22:14:29.880Z,100230.06
2023-01-19T22:16:56.520Z,100237.47
2023-01-19T22:19:25.497Z,100233.69
2023-01-19T22:21:52.159Z,100239.03
2023-01-19T22:24:19.929Z,100242.13
2023-01-19T22:26:46.484Z,100246.28
2023-01-19T22:29:13.329Z,100255.59
2023-01-19T22:31:40.500Z,100259.97
2023-01-19T22:34:10.316Z,100259.66
2023-01-19T22:36:37.765Z,100256.63
2023-01-19T22:39:06.851Z,100267.16
2023-01-19T22:41:33.466Z,100266.44
2023-01-19T22:44:03.522Z,100268.56
2023-01-19T22:46:32.474Z,100276.06
2023-01-19T22:49:00.074Z,100268.69
2023-01-19T22:51:28.664Z,100276.88
2023-01-19T22:53:55.662Z,100274.28
2023-01-19T22:56:27.952Z,100273.69
2023-01-19T22:58:55.721Z,100273.88
2023-01-19T23:01:27.585Z,100269.56
2023-01-19T23:03:55.939Z,100280.09
2023-01-19T23:06:34.459Z,100285.84
2023-01-19T23:09:04.537Z,100281.41
2023-01-19T23:11:39.386Z,100287.19
2023-01-19T23:14:09.512Z,100297.19
2023-01-19T23:16:36.070Z,100301.94
2023-01-19T23:19:03.525Z,100297.53
2023-01-19T23:21:31.515Z,100303.81
2023-01-19T23:24:01.141Z,100303.13
2023-01-19T23:26:30.736Z,100301.13
2023-01-19T23:29:01.509Z,100307.31
2023-01-19T23:31:31.169Z,100312.97
2023-01-19T23:34:00.621Z,100315.25
2023-01-19T23:36:29.514Z,100315.06
2023-01-19T23:38:58.782Z,100319.34
2023-01-19T23:41:26.435Z,100315.00
2023-01-19T23:43:53.034Z,100312.41
2023-01-19T23:46:20.156Z,100321.09
2023-01-19T23:48:47.442Z,100316.28
2023-01-19T23:51:17.171Z,100324.13
2023-01-19T23:53:43.822Z,100325.56
2023-01-19T23:56:10.381Z,100332.81
2023-01-19T23:58:37.844Z,100331.00
